ROMMA est une association bénévole à but non lucratif. Votre soutien est indispensable : ADHERER à ROMMA ou FAIRE un DON

St-Christophe/Guiers - Berland - (38, Isère)

Massif de la Chartreuse (533 m)   Longitude: 05° 46' 44" E   Latitude: 45° 25' 43" N Station partenaire n°32
 

Détail journalier du     <<     >>

Température Precipitation Humidité Pression Vent Dir Rafale Dir. rafale Ensol.
Heure (°C) (mm) (%) (hPa) (km/h) (km/h) (min)
01:00 4.408510048ENE19ENE0
02:00 3.9085100412ENE26ENE0
03:00 4.2084100414ENE29ENE0
04:00 3.8083100313ENE24E0
05:00 3.5084100313ENE27NE0
06:00 4.6080100221ENE40NE0
07:00 4.9078100222ENE47ENE0
08:00 4.6079100224ENE45NE15
09:00 5.4077100218ENE42ENE55
10:00 6.2074100219NE37NE45
11:00 6.8074100214NE31E40
12:00 9.306810037ENE26ENE25
13:00 10.506510025SO16SO50
14:00 11.706210027SO19SSO30
15:00 12.305810024OSO15SO35
16:00 11.306710039SO27SSO5
17:00 9.7073100315SO27SSO0
18:00 7.7082100412SO21SSO0
19:00 7.608410041---10SSO0
20:00 7.408610051SO8SO0
21:00 6.808910052SO10E0
22:00 7.807510056E26E0
23:00 7.807510055E23E0
minuit 6.808110062ENE11NE0

Graphique du 06-04-2019

 

Serveur OMMA